메인 페이지
METAR-TAF:

METAR-TAF

공항 :

코임바토르, 인도

위도: 11-01-36N, 경도: 077-02-30E, 고도: 400m

현재 날씨관측

예보는 1 시간 17분 전, 21:00시(UTC)에 발표되었습니다.
여러 방향의 바람 2kt
온도 26°C
습도 61%
기압 1012 hPa
시정: 6000m

METAR: VOCB 312100Z VRB02KT 6000 NSC 26/18 Q1012 NOSIG

시각: 03:47 (22:17 UTC)

예보

예보는 5 시간 17분 전, 17:00시(UTC)에 발표되었습니다.
예보 대상 시간: 31일 18시부터 01일 24시까지 (UTC)
남남동5kt
시정: 6000m
고도 1500ft 상공 구름 조금
전환 중
31일 21시부터 31일 22시까지 (UTC)
시정: 4000m
박무
전환 중
01일 00시부터 01일 01시까지 (UTC)
북북동5kt
전환 중
01일 03시부터 01일 04시까지 (UTC)
10kt
시정: 6000m
전환 중
01일 15시부터 01일 16시까지 (UTC)
남남동5kt
전환 중
01일 21시부터 01일 22시까지 (UTC)
시정: 4000m
박무

TAF: VOCB 311700Z 3118/0124 16005KT 6000 FEW015 BECMG 3121/3122 4000 BR BECMG 0100/0101 02005KT BECMG 0103/0104 09010KT 6000 BECMG 0115/0116 16005KT BECMG 0121/0122 4000 BR

4,000개 이상의 공항 관측 자료 및 예보 (METAR 및 TAF 보고).

지도상에서 검색 가능한 기상관측소가 노란 점과 빨간 점으로 표시되어 있습니다.

기상관측소 명을 보려면 표시 위로 마우스를 이동하세요.

날씨 관측과 예보를 보려면 클릭하세요.

지도 변경 : 확대하려면 엑스 표시가 있는 녹색 버튼, 축소하려면 빼기 표시가 있는 녹색 버튼, 다음 페이지의 지도를 보려면 녹색 화살표를 클릭하세요.


METAR-TAF: